createdAt,value
2023-03-13T00:02:50.356Z,7.57
2023-03-13T00:05:59.282Z,7.47
2023-03-13T00:09:03.333Z,7.75
2023-03-13T00:12:05.960Z,7.82
2023-03-13T00:15:08.765Z,7.35
2023-03-13T00:18:11.750Z,7.70
2023-03-13T00:21:14.254Z,7.93
2023-03-13T00:24:16.721Z,7.85
2023-03-13T00:27:18.917Z,8.25
2023-03-13T00:30:21.436Z,7.43
2023-03-13T00:33:23.650Z,7.47
2023-03-13T00:36:28.775Z,8.07
2023-03-13T00:39:31.062Z,7.72
2023-03-13T00:42:36.653Z,7.80
2023-03-13T00:45:38.808Z,8.25
2023-03-13T00:48:41.459Z,7.78
2023-03-13T00:51:43.617Z,7.60
2023-03-13T00:54:46.126Z,7.60
2023-03-13T00:57:48.264Z,6.90
2023-03-13T01:00:50.909Z,7.20
2023-03-13T01:03:59.505Z,7.57
2023-03-13T01:07:01.932Z,7.20
2023-03-13T01:10:04.491Z,7.22
2023-03-13T01:13:07.428Z,6.30
2023-03-13T01:16:13.227Z,7.20
2023-03-13T01:19:16.875Z,7.18
2023-03-13T01:22:20.313Z,7.18
2023-03-13T01:25:22.793Z,7.28
2023-03-13T01:28:26.244Z,7.62
2023-03-13T01:31:32.494Z,7.45
2023-03-13T01:34:35.354Z,7.68
2023-03-13T01:37:37.762Z,8.05
2023-03-13T01:40:48.402Z,7.20
2023-03-13T01:43:51.198Z,7.62
2023-03-13T01:46:53.566Z,6.93
2023-03-13T01:49:59.332Z,7.15
2023-03-13T01:53:02.243Z,7.00
2023-03-13T01:56:08.412Z,8.23
2023-03-13T01:59:20.549Z,7.35
2023-03-13T02:02:24.558Z,6.95
2023-03-13T02:05:29.014Z,6.87
2023-03-13T02:08:44.564Z,7.07
2023-03-13T02:11:53.015Z,6.90
2023-03-13T02:14:57.617Z,6.50
2023-03-13T02:18:00.675Z,6.93
2023-03-13T02:21:11.481Z,6.95
2023-03-13T02:24:24.284Z,5.95
2023-03-13T02:27:26.982Z,6.47
2023-03-13T02:30:29.329Z,6.55
2023-03-13T02:33:37.135Z,7.28
2023-03-13T02:36:40.399Z,6.75
2023-03-13T02:39:47.340Z,6.87
2023-03-13T02:42:52.284Z,7.20
2023-03-13T02:46:15.060Z,7.00
2023-03-13T02:49:26.773Z,6.55
2023-03-13T02:52:33.245Z,7.53
2023-03-13T02:55:40.915Z,6.50
2023-03-13T02:58:51.081Z,7.25
2023-03-13T03:01:54.316Z,7.72
2023-03-13T03:04:57.332Z,7.05
2023-03-13T03:07:59.555Z,7.40
2023-03-13T03:11:02.505Z,7.60
2023-03-13T03:14:05.320Z,6.85
2023-03-13T03:17:10.048Z,7.03
2023-03-13T03:20:12.420Z,6.90
2023-03-13T03:23:16.741Z,7.45
2023-03-13T03:26:19.020Z,6.53
2023-03-13T03:29:21.668Z,6.78
2023-03-13T03:32:24.364Z,7.32
2023-03-13T03:35:26.911Z,6.72
2023-03-13T03:38:29.463Z,6.32
2023-03-13T03:41:32.238Z,6.40
2023-03-13T03:44:34.881Z,6.70
2023-03-13T03:47:38.476Z,6.65
2023-03-13T03:50:41.820Z,6.78
2023-03-13T03:53:44.487Z,7.50
2023-03-13T03:56:46.772Z,6.62
2023-03-13T03:59:49.324Z,7.35
2023-03-13T04:02:51.734Z,7.12
2023-03-13T04:05:54.265Z,7.45
2023-03-13T04:08:58.476Z,7.35
2023-03-13T04:12:01.740Z,7.15
2023-03-13T04:15:05.821Z,7.28
2023-03-13T04:18:08.493Z,7.15
2023-03-13T04:21:11.242Z,7.32
2023-03-13T04:24:14.449Z,7.15
2023-03-13T04:27:17.276Z,6.12
2023-03-13T04:30:20.740Z,6.82
2023-03-13T04:33:24.992Z,6.90
2023-03-13T04:36:27.794Z,6.65
2023-03-13T04:39:33.153Z,6.50
2023-03-13T04:42:36.865Z,6.65
2023-03-13T04:45:39.737Z,6.68
2023-03-13T04:48:42.763Z,6.30
2023-03-13T04:51:45.698Z,6.45
2023-03-13T04:54:50.945Z,6.45
2023-03-13T04:57:53.517Z,6.75
2023-03-13T05:00:56.976Z,6.78
2023-03-13T05:03:59.402Z,6.20
2023-03-13T05:07:02.386Z,6.07
2023-03-13T05:10:05.961Z,6.35
2023-03-13T05:13:09.291Z,6.55
2023-03-13T05:16:11.775Z,6.37
2023-03-13T05:19:14.637Z,5.93
2023-03-13T05:22:16.873Z,5.85
2023-03-13T05:25:20.667Z,6.43
2023-03-13T05:28:23.258Z,6.07
2023-03-13T05:31:26.335Z,6.30
2023-03-13T05:34:29.115Z,5.68
2023-03-13T05:37:34.200Z,6.20
2023-03-13T05:40:36.687Z,6.45
2023-03-13T05:43:39.405Z,6.78
2023-03-13T05:46:41.804Z,5.90
2023-03-13T05:49:45.308Z,7.78
2023-03-13T05:52:48.312Z,6.78
2023-03-13T05:55:51.209Z,6.97
2023-03-13T05:58:53.730Z,6.72
2023-03-13T06:02:01.128Z,7.20
2023-03-13T06:05:04.567Z,7.05
2023-03-13T06:08:07.357Z,7.60
2023-03-13T06:11:09.909Z,8.45
2023-03-13T06:14:12.662Z,8.52
2023-03-13T06:17:16.028Z,8.70
2023-03-13T06:20:18.523Z,8.63
2023-03-13T06:23:21.104Z,8.43
2023-03-13T06:26:25.661Z,8.30
2023-03-13T06:29:28.193Z,8.30
2023-03-13T06:32:30.516Z,8.02
2023-03-13T06:35:38.805Z,7.62
2023-03-13T06:38:45.772Z,7.72
2023-03-13T06:41:48.211Z,7.97
2023-03-13T06:44:50.374Z,8.30
2023-03-13T06:47:52.797Z,8.70
2023-03-13T06:50:56.570Z,8.32
2023-03-13T06:53:59.186Z,7.75
2023-03-13T06:57:01.376Z,8.60
2023-03-13T07:00:06.080Z,8.43
2023-03-13T07:03:08.429Z,7.47
2023-03-13T07:06:12.430Z,8.07
2023-03-13T07:09:14.767Z,8.30
2023-03-13T07:12:17.337Z,8.30
2023-03-13T07:15:19.537Z,7.72
2023-03-13T07:18:23.026Z,7.40
2023-03-13T07:21:25.292Z,8.73
2023-03-13T07:24:27.865Z,7.93
2023-03-13T07:27:30.203Z,7.55
2023-03-13T07:30:32.701Z,7.57
2023-03-13T07:33:35.035Z,7.95
2023-03-13T07:36:37.514Z,7.85
2023-03-13T07:39:39.918Z,8.18
2023-03-13T07:42:42.607Z,7.68
2023-03-13T07:46:02.418Z,7.70
2023-03-13T07:49:04.895Z,7.62
2023-03-13T07:52:07.281Z,7.30
2023-03-13T07:55:10.154Z,7.10
2023-03-13T07:58:12.301Z,6.72
2023-03-13T08:01:21.209Z,7.40
2023-03-13T08:04:24.163Z,7.18
2023-03-13T08:07:26.287Z,7.32
2023-03-13T08:10:28.686Z,7.12
2023-03-13T08:13:32.642Z,7.45
2023-03-13T08:16:35.314Z,7.30
2023-03-13T08:19:38.517Z,7.45
2023-03-13T08:22:40.946Z,7.18
2023-03-13T08:25:43.109Z,6.45
2023-03-13T08:28:47.352Z,7.32
2023-03-13T08:31:52.558Z,6.60
2023-03-13T08:34:55.017Z,6.95
2023-03-13T08:37:57.129Z,6.90
2023-03-13T08:40:59.540Z,6.90
2023-03-13T08:44:02.184Z,6.82
2023-03-13T08:47:06.410Z,7.03
2023-03-13T08:50:09.104Z,7.18
2023-03-13T08:53:11.560Z,7.72
2023-03-13T08:56:16.022Z,6.93
2023-03-13T08:59:18.553Z,7.85
2023-03-13T09:02:20.886Z,6.68
2023-03-13T09:05:23.330Z,7.10
2023-03-13T09:08:26.420Z,7.28
2023-03-13T09:11:29.087Z,7.03
2023-03-13T09:14:31.270Z,6.45
2023-03-13T09:17:33.659Z,6.53
2023-03-13T09:20:35.788Z,6.10
2023-03-13T09:23:38.377Z,5.53
2023-03-13T09:26:46.526Z,4.90
2023-03-13T09:29:54.542Z,6.12
2023-03-13T09:32:56.804Z,5.82
2023-03-13T09:35:59.362Z,6.07
2023-03-13T09:39:01.594Z,6.78
2023-03-13T09:42:20.496Z,6.43
2023-03-13T09:45:35.409Z,5.80
2023-03-13T09:48:46.888Z,5.87
2023-03-13T09:51:53.512Z,5.93
2023-03-13T09:54:59.517Z,5.87
2023-03-13T09:58:11.501Z,5.80
2023-03-13T10:01:20.736Z,6.07
2023-03-13T10:04:41.524Z,6.32
2023-03-13T10:07:44.339Z,5.80
2023-03-13T10:11:03.638Z,6.45
2023-03-13T10:14:13.339Z,6.15
2023-03-13T10:17:34.521Z,5.83
2023-03-13T10:23:47.050Z,6.28
2023-03-13T10:26:49.200Z,6.70
2023-03-13T10:29:51.723Z,6.37
2023-03-13T10:32:58.073Z,6.25
2023-03-13T10:36:12.677Z,6.20
2023-03-13T10:39:17.635Z,7.00
2023-03-13T10:42:33.486Z,6.20
2023-03-13T10:45:37.664Z,6.37
2023-03-13T10:48:40.355Z,6.28
2023-03-13T10:51:48.762Z,5.45
2023-03-13T10:54:56.178Z,5.60
2023-03-13T10:58:06.025Z,5.30
2023-03-13T11:01:20.775Z,6.00
2023-03-13T11:04:29.478Z,6.75
2023-03-13T11:07:38.199Z,6.75
2023-03-13T11:10:56.745Z,6.10
2023-03-13T11:14:12.559Z,6.45
2023-03-13T11:17:58.775Z,6.87
2023-03-13T11:21:17.327Z,6.28
2023-03-13T11:24:26.253Z,6.10
2023-03-13T11:27:35.191Z,6.40
2023-03-13T11:30:45.077Z,6.85
2023-03-13T11:34:02.329Z,7.18
2023-03-13T11:37:13.598Z,7.07
2023-03-13T11:40:36.777Z,6.70
2023-03-13T11:43:59.197Z,7.60
2023-03-13T11:47:30.092Z,7.62
2023-03-13T11:50:43.547Z,7.35
2023-03-13T11:54:19.978Z,7.25
2023-03-13T11:57:30.614Z,7.10
2023-03-13T12:01:18.176Z,6.55
2023-03-13T12:04:29.583Z,6.55
2023-03-13T12:07:47.240Z,6.30
2023-03-13T12:11:10.268Z,5.15
2023-03-13T12:14:17.989Z,6.03
2023-03-13T12:17:29.636Z,6.30
2023-03-13T12:21:00.601Z,5.78
2023-03-13T12:24:23.277Z,5.32
2023-03-13T12:27:25.618Z,5.32
2023-03-13T12:31:04.480Z,5.32
2023-03-13T12:34:28.474Z,4.25
2023-03-13T12:38:06.523Z,4.47
2023-03-13T12:41:41.935Z,4.28
2023-03-13T12:44:44.952Z,4.18
2023-03-13T12:47:47.039Z,3.87
2023-03-13T12:51:27.289Z,3.70
2023-03-13T12:55:04.849Z,4.10
2023-03-13T12:58:46.176Z,3.78
2023-03-13T13:04:55.872Z,3.10
2023-03-13T13:07:58.381Z,3.20
2023-03-13T13:11:35.239Z,3.60
2023-03-13T13:14:49.766Z,3.75
2023-03-13T13:18:01.091Z,3.30
2023-03-13T13:21:03.304Z,3.90
2023-03-13T13:24:48.747Z,3.78
2023-03-13T13:27:51.986Z,3.53
2023-03-13T13:30:56.492Z,3.33
2023-03-13T13:33:58.826Z,3.65
2023-03-13T13:37:28.980Z,3.10
2023-03-13T13:40:32.126Z,3.30
2023-03-13T13:43:37.251Z,3.20
2023-03-13T13:46:45.696Z,4.07
2023-03-13T13:49:55.272Z,2.90
2023-03-13T13:53:43.203Z,3.05
2023-03-13T13:56:49.447Z,2.95
2023-03-13T13:59:57.728Z,2.95
2023-03-13T14:03:00.272Z,2.97
2023-03-13T14:06:21.643Z,3.20
2023-03-13T14:09:32.870Z,2.75
2023-03-13T14:12:37.963Z,3.20
2023-03-13T14:15:53.786Z,3.70
2023-03-13T14:18:57.345Z,3.72
2023-03-13T14:22:08.294Z,3.50
2023-03-13T14:25:10.696Z,3.42
2023-03-13T14:28:27.402Z,3.33
2023-03-13T14:31:39.555Z,3.17
2023-03-13T14:34:41.752Z,3.05
2023-03-13T14:37:47.507Z,3.22
2023-03-13T14:40:51.638Z,2.70
2023-03-13T14:43:55.003Z,2.53
2023-03-13T14:47:00.026Z,2.22
2023-03-13T14:50:13.906Z,2.28
2023-03-13T14:53:22.106Z,2.25
2023-03-13T14:56:43.009Z,2.20
2023-03-13T14:59:45.364Z,2.30
2023-03-13T15:02:47.780Z,2.50
2023-03-13T15:06:01.665Z,2.60
2023-03-13T15:09:30.654Z,2.50
2023-03-13T15:12:43.259Z,2.22
2023-03-13T15:15:49.560Z,2.22
2023-03-13T15:18:52.723Z,1.77
2023-03-13T15:21:55.522Z,1.77
2023-03-13T15:25:06.924Z,1.73
2023-03-13T15:28:28.833Z,1.30
2023-03-13T15:31:31.190Z,1.92
2023-03-13T15:34:34.092Z,2.30
2023-03-13T15:37:36.941Z,2.20
2023-03-13T15:40:39.541Z,2.30
2023-03-13T15:43:41.658Z,1.87
2023-03-13T15:46:44.111Z,2.10
2023-03-13T15:49:46.893Z,2.65
2023-03-13T15:52:49.365Z,2.42
2023-03-13T15:55:53.819Z,2.03
2023-03-13T15:58:56.539Z,2.10
2023-03-13T16:01:58.655Z,2.08
2023-03-13T16:05:01.028Z,2.83
2023-03-13T16:08:03.217Z,2.20
2023-03-13T16:11:06.012Z,2.40
2023-03-13T16:14:08.174Z,2.67
2023-03-13T16:17:16.552Z,2.40
2023-03-13T16:20:21.635Z,2.35
2023-03-13T16:23:24.149Z,2.80
2023-03-13T16:26:31.608Z,2.67
2023-03-13T16:29:34.103Z,2.62
2023-03-13T16:32:36.313Z,2.58
2023-03-13T16:35:39.517Z,3.12
2023-03-13T16:38:41.872Z,2.20
2023-03-13T16:41:44.257Z,2.12
2023-03-13T16:44:46.494Z,2.40
2023-03-13T16:47:49.559Z,2.28
2023-03-13T16:50:51.722Z,2.53
2023-03-13T16:53:55.903Z,3.00
2023-03-13T16:56:59.034Z,2.80
2023-03-13T17:00:01.873Z,2.40
2023-03-13T17:03:04.388Z,2.90
2023-03-13T17:06:07.164Z,3.72
2023-03-13T17:09:15.158Z,2.60
2023-03-13T17:12:18.933Z,3.35
2023-03-13T17:15:22.414Z,2.95
2023-03-13T17:18:24.849Z,2.60
2023-03-13T17:21:30.336Z,3.17
2023-03-13T17:24:32.781Z,2.95
2023-03-13T17:27:35.167Z,3.00
2023-03-13T17:30:37.724Z,3.12
2023-03-13T17:33:40.868Z,3.10
2023-03-13T17:36:44.522Z,2.70
2023-03-13T17:39:48.134Z,2.87
2023-03-13T17:42:50.734Z,2.80
2023-03-13T17:45:53.764Z,2.92
2023-03-13T17:48:56.991Z,2.80
2023-03-13T17:51:59.100Z,2.92
2023-03-13T17:55:01.478Z,2.65
2023-03-13T17:58:03.632Z,3.40
2023-03-13T18:01:06.401Z,3.17
2023-03-13T18:04:09.347Z,3.60
2023-03-13T18:07:25.985Z,3.58
2023-03-13T18:10:29.985Z,4.05
2023-03-13T18:13:32.259Z,4.43
2023-03-13T18:16:47.855Z,4.35
2023-03-13T18:19:51.595Z,3.80
2023-03-13T18:22:59.183Z,4.12
2023-03-13T18:26:01.496Z,4.40
2023-03-13T18:29:12.043Z,4.60
2023-03-13T18:32:16.828Z,4.78
2023-03-13T18:35:19.418Z,4.70
2023-03-13T18:38:23.788Z,4.90
2023-03-13T18:41:26.307Z,4.53
2023-03-13T18:44:28.406Z,4.82
2023-03-13T18:47:31.445Z,4.25
2023-03-13T18:50:33.607Z,4.30
2023-03-13T18:53:36.420Z,4.72
2023-03-13T18:56:39.119Z,4.78
2023-03-13T18:59:42.045Z,5.25
2023-03-13T19:02:45.653Z,5.60
2023-03-13T19:05:48.048Z,5.40
2023-03-13T19:08:53.663Z,5.43
2023-03-13T19:11:56.159Z,5.35
2023-03-13T19:14:58.291Z,4.93
2023-03-13T19:18:03.363Z,6.00
2023-03-13T19:21:15.353Z,5.50
2023-03-13T19:24:17.958Z,5.37
2023-03-13T19:27:20.257Z,5.28
2023-03-13T19:30:24.801Z,6.10
2023-03-13T19:33:26.900Z,5.72
2023-03-13T19:36:36.274Z,6.35
2023-03-13T19:39:39.853Z,6.40
2023-03-13T19:42:42.312Z,5.25
2023-03-13T19:45:44.450Z,5.40
2023-03-13T19:48:47.301Z,5.43
2023-03-13T19:51:49.537Z,5.30
2023-03-13T19:54:53.740Z,5.87
2023-03-13T19:57:55.908Z,5.82
2023-03-13T20:01:00.709Z,5.47
2023-03-13T20:04:11.706Z,5.93
2023-03-13T20:07:13.902Z,5.82
2023-03-13T20:10:16.577Z,5.72
2023-03-13T20:13:18.698Z,6.32
2023-03-13T20:16:21.960Z,6.43
2023-03-13T20:19:27.951Z,6.30
2023-03-13T20:22:30.395Z,6.22
2023-03-13T20:25:32.514Z,5.87
2023-03-13T20:28:36.557Z,6.60
2023-03-13T20:31:38.792Z,5.97
2023-03-13T20:34:41.337Z,6.65
2023-03-13T20:37:43.508Z,6.20
2023-03-13T20:40:55.157Z,6.82
2023-03-13T20:43:57.330Z,6.87
2023-03-13T20:46:59.757Z,7.12
2023-03-13T20:50:02.049Z,6.87
2023-03-13T20:53:04.628Z,7.47
2023-03-13T20:56:08.178Z,6.85
2023-03-13T20:59:10.655Z,7.10
2023-03-13T21:02:12.978Z,7.15
2023-03-13T21:05:16.671Z,6.35
2023-03-13T21:08:18.916Z,6.40
2023-03-13T21:11:23.074Z,6.95
2023-03-13T21:14:25.299Z,6.53
2023-03-13T21:17:27.760Z,6.12
2023-03-13T21:20:30.427Z,6.15
2023-03-13T21:23:33.150Z,6.12
2023-03-13T21:26:35.286Z,6.50
2023-03-13T21:29:37.742Z,6.22
2023-03-13T21:32:40.463Z,6.15
2023-03-13T21:35:42.966Z,6.55
2023-03-13T21:38:45.460Z,6.03
2023-03-13T21:41:47.921Z,6.68
2023-03-13T21:44:50.055Z,6.40
2023-03-13T21:47:52.549Z,6.78
2023-03-13T21:50:54.801Z,6.80
2023-03-13T21:53:57.170Z,7.28
2023-03-13T21:56:59.339Z,6.87
2023-03-13T22:00:02.112Z,6.72
2023-03-13T22:03:09.352Z,6.97
2023-03-13T22:06:17.517Z,7.55
2023-03-13T22:09:19.742Z,6.72
2023-03-13T22:12:23.694Z,7.22
2023-03-13T22:15:26.887Z,7.10
2023-03-13T22:18:29.357Z,7.22
2023-03-13T22:21:31.476Z,6.95
2023-03-13T22:24:33.967Z,7.68
2023-03-13T22:27:36.167Z,6.90
2023-03-13T22:30:39.380Z,7.03
2023-03-13T22:33:41.640Z,7.68
2023-03-13T22:36:44.140Z,6.65
2023-03-13T22:39:46.248Z,7.40
2023-03-13T22:42:48.659Z,7.72
2023-03-13T22:45:50.859Z,7.37
2023-03-13T22:48:53.339Z,7.68
2023-03-13T22:51:55.475Z,7.45
2023-03-13T22:54:59.012Z,7.57
2023-03-13T22:58:01.229Z,8.43
2023-03-13T23:01:22.763Z,8.38
2023-03-13T23:04:25.123Z,7.85
2023-03-13T23:07:29.731Z,8.20
2023-03-13T23:10:31.880Z,7.87
2023-03-13T23:13:34.336Z,7.18
2023-03-13T23:16:36.689Z,7.45
2023-03-13T23:19:39.115Z,8.82
2023-03-13T23:22:43.144Z,8.02
2023-03-13T23:25:45.773Z,8.30
2023-03-13T23:28:47.926Z,7.57
2023-03-13T23:31:50.450Z,8.10
2023-03-13T23:34:52.591Z,7.55
2023-03-13T23:37:55.181Z,8.20
2023-03-13T23:40:57.319Z,7.87
2023-03-13T23:44:00.874Z,8.20
2023-03-13T23:47:03.295Z,7.50
2023-03-13T23:50:06.296Z,8.13
2023-03-13T23:53:08.507Z,7.85
2023-03-13T23:56:11.752Z,8.25
2023-03-13T23:59:14.089Z,7.65
